Time;durP1;ratioP1;P1;durP2;ratioP2;P2;SDS_P1;SDS_P2;PMS_P1;PMS_P2;Temp;Humidity;BMP_temperature;BMP_pressure;BME280_temperature;BME280_humidity;BME280_pressure;Samples;Min_cycle;Max_cycle;Signal;HPM_P1;HPM_P2
2022/11/07 00:00:57;;;;;;;26.73;3.10;;;;;;;10.26;100.00;99961.84;4798420;29;20034;-77
2022/11/07 00:03:22;;;;;;;21.10;3.30;;;;;;;10.23;100.00;99966.06;4828745;29;20100;-76
2022/11/07 00:05:48;;;;;;;21.88;3.88;;;;;;;10.24;100.00;99961.31;4829118;29;20037;-77
2022/11/07 00:08:13;;;;;;;22.25;3.00;;;;;;;10.19;100.00;99958.63;4783979;29;20037;-76
2022/11/07 00:10:39;;;;;;;22.00;2.92;;;;;;;10.20;100.00;99949.19;4798841;29;20042;-76
2022/11/07 00:13:04;;;;;;;25.17;3.33;;;;;;;10.16;100.00;99948.97;4845657;29;20034;-77
2022/11/07 00:15:30;;;;;;;26.45;3.63;;;;;;;10.14;100.00;99950.41;4845223;29;20037;-76
2022/11/07 00:17:56;;;;;;;23.05;2.80;;;;;;;10.14;100.00;99939.28;4828498;29;20034;-76
2022/11/07 00:20:22;;;;;;;28.55;3.08;;;;;;;10.13;100.00;99940.44;4828726;29;20507;-76
2022/11/07 00:22:47;;;;;;;30.77;3.88;;;;;;;10.11;100.00;99945.47;4828598;29;20038;-76
2022/11/07 00:25:13;;;;;;;33.83;3.67;;;;;;;10.08;100.00;99938.56;4828677;29;20808;-76
2022/11/07 00:27:38;;;;;;;23.05;3.53;;;;;;;10.06;100.00;99941.66;4813000;29;20495;-77
2022/11/07 00:30:04;;;;;;;19.48;2.75;;;;;;;10.04;100.00;99951.41;4828731;29;20030;-76
2022/11/07 00:32:30;;;;;;;29.05;3.85;;;;;;;10.04;100.00;99957.78;4798488;29;20067;-76
2022/11/07 00:34:55;;;;;;;27.02;3.90;;;;;;;10.03;100.00;99970.00;4844812;29;20042;-76
2022/11/07 00:37:21;;;;;;;23.58;3.17;;;;;;;10.01;100.00;99963.94;4798364;29;20037;-76
2022/11/07 00:39:46;;;;;;;23.27;3.50;;;;;;;10.02;100.00;99971.13;4843444;29;20041;-76
2022/11/07 00:42:12;;;;;;;29.25;3.78;;;;;;;10.01;100.00;99971.44;4828396;29;20037;-76
2022/11/07 00:44:37;;;;;;;20.55;3.72;;;;;;;9.97;100.00;99962.91;4814263;29;20034;-76
2022/11/07 00:47:03;;;;;;;22.77;3.88;;;;;;;9.95;100.00;99969.88;4844666;29;20046;-77
2022/11/07 00:49:28;;;;;;;22.55;2.90;;;;;;;9.97;100.00;99973.16;4827800;29;20057;-76
2022/11/07 00:51:54;;;;;;;31.80;4.32;;;;;;;9.97;100.00;99974.00;4843017;29;20045;-76
2022/11/07 00:54:19;;;;;;;24.80;3.40;;;;;;;9.95;100.00;99965.16;4844460;29;20045;-76
2022/11/07 00:56:45;;;;;;;28.50;3.90;;;;;;;9.97;100.00;99965.69;4828358;29;20042;-76
2022/11/07 00:59:11;;;;;;;32.08;4.30;;;;;;;9.95;100.00;99969.88;4844582;29;20042;-76
2022/11/07 01:01:37;;;;;;;20.20;3.67;;;;;;;9.96;100.00;99966.78;4828506;29;20078;-76
2022/11/07 01:06:46;;;;;;;25.50;3.58;;;;;;;9.93;100.00;99969.34;4830668;29;20040;-76
2022/11/07 01:09:14;;;;;;;31.77;3.88;;;;;;;9.95;100.00;99970.72;4812983;29;20050;-76
2022/11/07 01:11:40;;;;;;;24.05;3.00;;;;;;;9.93;100.00;99972.94;4800493;29;20032;-76
2022/11/07 01:14:06;;;;;;;26.25;3.95;;;;;;;9.95;100.00;99972.66;4831803;29;20034;-76
2022/11/07 01:16:34;;;;;;;25.33;3.28;;;;;;;9.94;100.00;99963.50;4816793;29;20061;-76
2022/11/07 01:19:03;;;;;;;31.25;3.60;;;;;;;9.95;100.00;99976.25;4831728;29;20046;-77
2022/11/07 01:21:28;;;;;;;23.00;2.90;;;;;;;9.95;100.00;99967.94;4817145;29;20057;-76
2022/11/07 01:23:54;;;;;;;27.60;3.58;;;;;;;9.98;100.00;99972.06;4815953;29;20403;-76
2022/11/07 01:26:19;;;;;;;27.25;3.53;;;;;;;10.00;100.00;99975.31;4831795;29;20038;-76
2022/11/07 01:28:45;;;;;;;24.35;3.42;;;;;;;10.00;100.00;99975.31;4816288;29;20030;-76
2022/11/07 01:31:11;;;;;;;23.90;3.47;;;;;;;10.02;100.00;99978.63;4816496;29;20041;-76
2022/11/07 01:33:37;;;;;;;32.13;3.92;;;;;;;10.05;100.00;99981.63;4816275;29;20033;-76
2022/11/07 01:36:04;;;;;;;24.45;3.55;;;;;;;10.05;100.00;99984.38;4824586;29;20090;-77
2022/11/07 01:38:29;;;;;;;26.77;3.70;;;;;;;10.09;100.00;99989.34;4847938;29;20509;-76
2022/11/07 01:43:44;;;;;;;24.05;4.05;;;;;;;10.10;100.00;99991.00;4847931;29;20083;-76
2022/11/07 01:46:10;;;;;;;33.30;3.72;;;;;;;10.12;100.00;99992.34;4816677;29;20120;-76
2022/11/07 01:48:35;;;;;;;31.33;3.35;;;;;;;10.11;100.00;100001.78;4815698;29;20034;-76
2022/11/07 01:51:01;;;;;;;18.40;2.67;;;;;;;10.12;100.00;100003.44;4831472;29;20066;-76
2022/11/07 01:53:26;;;;;;;30.65;4.28;;;;;;;10.13;100.00;100005.06;4816229;29;20030;-76
2022/11/07 01:55:51;;;;;;;21.75;3.15;;;;;;;10.14;100.00;99990.09;4847527;29;20061;-76
2022/11/07 01:58:17;;;;;;;19.70;3.00;;;;;;;10.12;100.00;99989.56;4815866;29;20045;-77
2022/11/07 02:00:42;;;;;;;29.05;3.58;;;;;;;10.14;100.00;100000.34;4815787;29;20038;-76
2022/11/07 02:03:09;;;;;;;21.05;3.22;;;;;;;10.15;100.00;99996.47;4815603;29;20403;-76
2022/11/07 02:05:59;;;;;;;27.38;2.78;;;;;;;10.16;100.00;99998.91;4816047;29;20136;-76
2022/11/07 02:08:25;;;;;;;25.63;3.28;;;;;;;10.17;100.00;99997.81;4847298;29;20045;-76
2022/11/07 02:10:50;;;;;;;22.67;3.17;;;;;;;10.18;100.00;100002.22;4831019;29;20502;-76
2022/11/07 02:13:22;;;;;;;21.67;3.15;;;;;;;10.20;100.00;100004.69;4831004;29;20034;-77
2022/11/07 02:15:48;;;;;;;22.63;3.40;;;;;;;10.20;100.00;99999.97;4832795;29;20037;-76
2022/11/07 02:18:13;;;;;;;21.83;2.63;;;;;;;10.22;100.00;99996.88;4831805;29;20655;-76
2022/11/07 02:20:39;;;;;;;18.30;2.38;;;;;;;10.23;100.00;100004.09;4815352;29;20041;-76
2022/11/07 02:23:13;;;;;;;21.63;2.85;;;;;;;10.24;100.00;99983.53;4785014;29;20087;-76
2022/11/07 02:25:39;;;;;;;23.65;2.90;;;;;;;10.25;100.00;99982.38;4830823;29;20117;-76
2022/11/07 02:28:06;;;;;;;20.25;2.70;;;;;;;10.25;100.00;99986.00;4815512;29;20034;-77
2022/11/07 02:30:33;;;;;;;15.85;2.35;;;;;;;10.25;100.00;99987.94;4847064;29;20042;-76
2022/11/07 02:32:59;;;;;;;21.90;3.13;;;;;;;10.24;100.00;99983.53;4815678;29;20036;-76
2022/11/07 02:35:33;;;;;;;22.83;2.92;;;;;;;10.25;100.00;99986.00;4824201;29;20030;-76
2022/11/07 02:37:59;;;;;;;18.92;3.00;;;;;;;10.25;100.00;99985.16;4818960;29;20033;-77
2022/11/07 02:40:25;;;;;;;24.40;3.50;;;;;;;10.26;100.00;99982.09;4815006;29;20057;-76
2022/11/07 02:42:50;;;;;;;18.48;2.40;;;;;;;10.23;100.00;99987.44;4830464;29;20030;-76
2022/11/07 02:45:23;;;;;;;20.13;2.50;;;;;;;10.24;100.00;99989.06;4815248;29;20037;-76
2022/11/07 02:47:48;;;;;;;17.08;2.33;;;;;;;10.24;100.00;99977.97;4830293;29;20541;-76
2022/11/07 02:50:14;;;;;;;17.10;2.13;;;;;;;10.24;100.00;99981.56;4814528;29;20113;-76
2022/11/07 02:52:39;;;;;;;21.80;2.90;;;;;;;10.22;100.00;99974.66;4830297;29;20062;-77
2022/11/07 02:55:06;;;;;;;20.00;2.63;;;;;;;10.23;100.00;99976.34;4846685;29;20038;-76
2022/11/07 02:57:31;;;;;;;19.00;2.78;;;;;;;10.23;100.00;99981.88;4797102;29;20034;-76
2022/11/07 02:59:57;;;;;;;16.10;2.20;;;;;;;10.23;100.00;99987.44;4842881;29;20069;-76
2022/11/07 03:02:23;;;;;;;18.65;2.65;;;;;;;10.23;100.00;99981.88;4846672;29;20034;-76
2022/11/07 03:04:48;;;;;;;18.80;2.72;;;;;;;10.21;100.00;99978.59;4807950;29;20038;-76
2022/11/07 03:07:14;;;;;;;18.42;2.40;;;;;;;10.21;100.00;99978.59;4815186;29;20040;-77
2022/11/07 03:09:39;;;;;;;21.35;3.25;;;;;;;10.21;100.00;99975.81;4829819;29;20033;-76
2022/11/07 03:12:05;;;;;;;18.35;2.38;;;;;;;10.22;100.00;99971.91;4830206;29;20030;-76
2022/11/07 03:14:30;;;;;;;12.48;1.90;;;;;;;10.20;100.00;99982.50;4846412;29;20087;-76
2022/11/07 03:16:56;;;;;;;16.38;2.80;;;;;;;10.18;100.00;99980.00;4814243;29;20082;-76
2022/11/07 03:19:21;;;;;;;21.40;2.45;;;;;;;10.20;100.00;99976.94;4829370;29;20451;-76
2022/11/07 03:21:49;;;;;;;15.27;2.35;;;;;;;10.19;100.00;99978.06;4829846;29;20033;-76
2022/11/07 03:24:14;;;;;;;16.50;2.30;;;;;;;10.19;100.00;99969.72;4845831;29;20052;-76
2022/11/07 03:26:39;;;;;;;15.95;2.10;;;;;;;10.19;100.00;99978.06;4846042;29;20038;-76
2022/11/07 03:29:05;;;;;;;18.42;2.28;;;;;;;10.18;100.00;99974.47;4829617;29;20038;-76
2022/11/07 03:31:30;;;;;;;16.45;3.05;;;;;;;10.16;100.00;99979.50;4846096;29;20045;-76
2022/11/07 03:33:56;;;;;;;20.85;3.03;;;;;;;10.17;100.00;99980.31;4829171;29;20042;-76
2022/11/07 03:36:21;;;;;;;17.38;3.05;;;;;;;10.16;100.00;99975.91;4837607;29;20045;-77
2022/11/07 03:38:47;;;;;;;18.65;2.97;;;;;;;10.18;100.00;99976.41;4829265;29;20038;-76
2022/11/07 03:41:16;;;;;;;20.65;3.03;;;;;;;10.19;100.00;99975.28;4814357;29;20037;-77
2022/11/07 03:43:44;;;;;;;15.25;2.30;;;;;;;10.19;100.00;99984.44;4845732;29;20516;-76
2022/11/07 03:46:12;;;;;;;18.17;2.85;;;;;;;10.20;100.00;99980.53;4814539;29;20030;-76
2022/11/07 03:48:38;;;;;;;19.05;2.85;;;;;;;10.21;100.00;99986.91;4813784;29;20120;-76
2022/11/07 03:51:04;;;;;;;17.42;2.72;;;;;;;10.23;100.00;99982.72;4799127;29;20034;-76
2022/11/07 03:53:29;;;;;;;11.85;2.63;;;;;;;10.24;100.00;99983.53;4845176;29;20038;-76
2022/11/07 03:55:55;;;;;;;15.57;2.30;;;;;;;10.25;100.00;99987.94;4829313;29;20034;-76
2022/11/07 03:58:21;;;;;;;28.13;3.03;;;;;;;10.27;100.00;99977.41;4829067;29;20065;-76
2022/11/07 04:00:46;;;;;;;19.40;2.90;;;;;;;10.28;100.00;99979.06;4798731;29;20037;-76
2022/11/07 04:03:12;;;;;;;14.98;2.45;;;;;;;10.28;100.00;99970.72;4812193;29;20485;-76
2022/11/07 04:05:38;;;;;;;24.98;2.80;;;;;;;10.33;100.00;99978.94;4813970;29;20050;-76
2022/11/07 04:08:03;;;;;;;21.58;3.17;;;;;;;10.36;100.00;99978.31;4812437;29;20037;-76
2022/11/07 04:10:29;;;;;;;19.80;2.78;;;;;;;10.37;100.00;99973.63;4813529;29;20034;-76
2022/11/07 04:18:23;;;;;;;33.35;3.05;;;;;;;10.41;100.00;99972.69;4829886;29;20037;-76
2022/11/07 04:20:48;;;;;;;29.00;3.45;;;;;;;10.41;100.00;99978.25;4828910;29;20030;-76
2022/11/07 04:23:14;;;;;;;21.67;3.38;;;;;;;10.40;100.00;99970.22;4828661;29;20041;-76
2022/11/07 04:28:23;;;;;;;18.65;3.35;;;;;;;10.39;100.00;99957.47;4815385;29;20511;-76
2022/11/07 04:30:48;;;;;;;19.63;3.58;;;;;;;10.40;100.00;99965.50;4813705;29;20034;-77
2022/11/07 04:33:14;;;;;;;21.63;3.10;;;;;;;10.40;100.00;99964.69;4844807;29;20037;-76
2022/11/07 04:35:39;;;;;;;25.50;3.30;;;;;;;10.38;100.00;99948.31;4854070;29;20552;-76
2022/11/07 04:38:05;;;;;;;17.67;2.42;;;;;;;10.37;100.00;99949.47;4828827;29;20034;-76
2022/11/07 04:40:30;;;;;;;17.73;2.67;;;;;;;10.38;100.00;99944.72;4828445;29;20034;-76
2022/11/07 04:42:56;;;;;;;16.63;2.60;;;;;;;10.37;100.00;99957.78;4844858;29;20041;-77
2022/11/07 04:45:21;;;;;;;32.13;3.78;;;;;;;10.39;100.00;99951.91;4828119;29;20042;-76
2022/11/07 04:47:47;;;;;;;21.73;3.22;;;;;;;10.39;100.00;99949.13;4828273;29;20411;-77
2022/11/07 04:50:14;;;;;;;25.02;3.35;;;;;;;10.37;100.00;99952.25;4827870;29;20139;-76
2022/11/07 04:52:39;;;;;;;21.40;3.40;;;;;;;10.37;100.00;99954.19;4844701;29;20046;-76
2022/11/07 04:55:06;;;;;;;23.05;3.45;;;;;;;10.34;100.00;99961.19;4828530;29;20067;-76
2022/11/07 04:57:31;;;;;;;19.10;2.80;;;;;;;10.34;100.00;99955.63;4813343;29;20483;-76
2022/11/07 04:59:57;;;;;;;29.25;3.83;;;;;;;10.31;100.00;99949.84;4844476;29;20038;-76
2022/11/07 05:02:23;;;;;;;21.58;2.90;;;;;;;10.29;100.00;99945.44;4813080;29;20041;-76
2022/11/07 05:04:50;;;;;;;24.27;3.15;;;;;;;10.26;100.00;99950.75;4844373;29;20033;-76
2022/11/07 05:07:16;;;;;;;24.50;3.42;;;;;;;10.27;100.00;99957.97;4828571;29;20034;-76
2022/11/07 05:09:41;;;;;;;20.73;2.92;;;;;;;10.25;100.00;99958.25;4797274;29;20527;-76
2022/11/07 05:12:06;;;;;;;19.33;3.35;;;;;;;10.23;100.00;99943.84;4844811;29;20061;-76
2022/11/07 05:14:32;;;;;;;24.95;3.20;;;;;;;10.22;100.00;99949.69;4828283;29;20089;-76
2022/11/07 05:16:57;;;;;;;21.98;3.67;;;;;;;10.20;100.00;99954.75;4828178;29;20034;-77
2022/11/07 05:19:23;;;;;;;17.52;3.00;;;;;;;10.17;100.00;99970.06;4812053;29;20038;-76
2022/11/07 05:23:11;;;;;;;28.45;3.60;;;;;;;10.17;100.00;99966.44;4827984;29;20037;-76
2022/11/07 05:24:37;;;;;;;23.17;3.28;;;;;;;10.12;100.00;99970.13;4818669;29;20037;-76
2022/11/07 05:27:03;;;;;;;29.38;3.72;;;;;;;10.12;100.00;99961.81;4828302;29;20033;-76
2022/11/07 05:29:28;;;;;;;26.13;4.35;;;;;;;10.10;100.00;99963.25;4812721;29;20434;-76
2022/11/07 05:31:54;;;;;;;21.60;3.20;;;;;;;10.09;100.00;99964.38;4844320;29;20038;-76
2022/11/07 05:34:19;;;;;;;24.73;4.15;;;;;;;10.09;100.00;99959.66;4815883;29;20494;-77
2022/11/07 05:36:45;;;;;;;28.92;3.53;;;;;;;10.09;100.00;99972.72;4833351;29;20041;-76
2022/11/07 05:39:10;;;;;;;21.48;3.40;;;;;;;10.07;100.00;99961.91;4812697;29;20033;-76
2022/11/07 05:41:36;;;;;;;19.80;3.25;;;;;;;10.08;100.00;99963.53;4844362;29;20038;-76
2022/11/07 05:44:01;;;;;;;20.48;2.85;;;;;;;10.07;100.00;99956.34;4827753;29;20034;-76
2022/11/07 05:46:26;;;;;;;19.67;3.10;;;;;;;10.07;100.00;99962.72;4797538;29;20042;-76
2022/11/07 05:48:52;;;;;;;28.67;3.85;;;;;;;10.09;100.00;99976.31;4826937;29;20087;-76
2022/11/07 05:51:17;;;;;;;25.15;3.72;;;;;;;10.10;100.00;99964.06;4843130;29;20679;-76
2022/11/07 05:53:43;;;;;;;24.58;3.25;;;;;;;10.11;100.00;99971.25;4797412;29;20037;-76
2022/11/07 05:56:08;;;;;;;25.05;3.63;;;;;;;10.10;100.00;99966.03;4812650;29;20045;-76
2022/11/07 05:58:34;;;;;;;20.13;3.67;;;;;;;10.12;100.00;99970.13;4829562;29;20042;-77
2022/11/07 06:01:04;;;;;;;33.88;3.90;;;;;;;10.13;100.00;99963.44;4831148;29;20464;-76
2022/11/07 06:03:30;;;;;;;28.10;4.30;;;;;;;10.11;100.00;99967.66;4816048;29;20454;-76
2022/11/07 06:05:55;;;;;;;27.63;4.35;;;;;;;10.11;100.00;99967.66;4830670;29;20041;-76
2022/11/07 06:08:21;;;;;;;22.65;4.10;;;;;;;10.10;100.00;99979.91;4830785;29;20063;-76
2022/11/07 06:10:46;;;;;;;26.60;5.00;;;;;;;10.10;100.00;99977.94;4830475;29;20076;-76
2022/11/07 06:13:13;;;;;;;23.27;3.60;;;;;;;10.13;100.00;99968.19;4847007;29;20064;-76
2022/11/07 06:15:39;;;;;;;20.15;4.10;;;;;;;10.08;100.00;99971.84;4831106;29;20030;-76
2022/11/07 06:18:06;;;;;;;29.10;4.55;;;;;;;10.11;100.00;99964.88;4830130;29;20155;-76
2022/11/07 06:20:32;;;;;;;20.90;4.15;;;;;;;10.08;100.00;99960.75;4831991;29;20030;-76
2022/11/07 06:23:02;;;;;;;26.38;4.10;;;;;;;10.06;100.00;99972.19;4815524;29;20543;-76
2022/11/07 06:25:28;;;;;;;26.88;4.18;;;;;;;10.08;100.00;99974.63;4800698;29;20029;-76
2022/11/07 06:28:00;;;;;;;23.35;3.67;;;;;;;10.09;100.00;99976.31;4847233;29;20066;-76
2022/11/07 06:30:26;;;;;;;24.92;4.07;;;;;;;10.07;100.00;99979.38;4815885;29;20037;-76
2022/11/07 06:32:51;;;;;;;22.35;3.75;;;;;;;10.07;100.00;99984.91;4815378;29;20437;-76
2022/11/07 06:35:17;;;;;;;27.80;4.70;;;;;;;10.09;100.00;99970.75;4845906;29;20121;-76
2022/11/07 06:37:42;;;;;;;23.75;3.05;;;;;;;10.12;100.00;99977.66;4830393;29;20038;-76
2022/11/07 06:40:08;;;;;;;20.15;3.08;;;;;;;10.11;100.00;99974.03;4830396;29;20492;-76
2022/11/07 06:42:34;;;;;;;18.98;3.28;;;;;;;10.10;100.00;99968.78;4830487;29;20072;-76
2022/11/07 06:44:59;;;;;;;25.42;4.00;;;;;;;10.09;100.00;99976.31;4830614;29;20046;-76
2022/11/07 06:47:25;;;;;;;27.17;3.60;;;;;;;10.10;100.00;99977.13;4830434;29;20042;-76
2022/11/07 06:49:50;;;;;;;23.02;3.08;;;;;;;10.07;100.00;99973.81;4829436;29;20053;-76
2022/11/07 06:52:16;;;;;;;29.42;4.13;;;;;;;10.09;100.00;99986.59;4830323;29;20037;-76
2022/11/07 06:54:42;;;;;;;25.48;3.58;;;;;;;10.11;100.00;99979.56;4846661;29;20041;-76
2022/11/07 06:57:08;;;;;;;27.00;4.13;;;;;;;10.14;100.00;99972.59;4814828;29;20034;-76
2022/11/07 06:59:34;;;;;;;28.13;3.90;;;;;;;10.12;100.00;99972.91;4784715;29;20045;-76
2022/11/07 07:01:59;;;;;;;23.95;3.35;;;;;;;10.13;100.00;99979.28;4829657;29;20038;-76
2022/11/07 07:04:25;;;;;;;17.80;3.00;;;;;;;10.17;100.00;99974.75;4814809;29;20045;-76
2022/11/07 07:06:50;;;;;;;23.20;3.28;;;;;;;10.15;100.00;99986.19;4830318;29;20025;-76
2022/11/07 07:09:15;;;;;;;21.60;3.72;;;;;;;10.15;100.00;99975.06;4799731;29;20037;-76
2022/11/07 07:11:43;;;;;;;20.88;3.30;;;;;;;10.16;100.00;99984.22;4830163;29;20038;-76
2022/11/07 07:14:09;;;;;;;22.02;3.33;;;;;;;10.17;100.00;100000.56;4830414;29;20034;-76
2022/11/07 07:16:34;;;;;;;18.10;3.15;;;;;;;10.17;100.00;99988.63;4829951;29;20041;-76
2022/11/07 07:19:00;;;;;;;23.65;3.33;;;;;;;10.19;100.00;99992.75;4813962;29;20038;-76
2022/11/07 07:21:25;;;;;;;18.63;3.13;;;;;;;10.19;100.00;99992.75;4829779;29;20026;-77
2022/11/07 07:23:51;;;;;;;24.98;2.97;;;;;;;10.21;100.00;99995.25;4799502;29;20045;-76
2022/11/07 07:26:17;;;;;;;19.42;2.92;;;;;;;10.23;100.00;99999.34;4846057;29;20091;-76
2022/11/07 07:28:43;;;;;;;17.77;2.50;;;;;;;10.25;100.00;99987.94;4829594;29;20033;-76
2022/11/07 07:31:14;;;;;;;17.30;3.40;;;;;;;10.28;100.00;100013.19;4829081;29;20404;-76
2022/11/07 07:33:40;;;;;;;19.92;3.08;;;;;;;10.33;100.00;100000.31;4845643;29;20034;-76
2022/11/07 07:36:07;;;;;;;22.38;2.80;;;;;;;10.35;100.00;100001.66;4838419;29;20069;-76
2022/11/07 07:38:32;;;;;;;24.73;3.05;;;;;;;10.37;100.00;100013.31;4829400;29;20042;-76
2022/11/07 07:40:58;;;;;;;24.83;3.10;;;;;;;10.38;100.00;100006.59;4829073;29;20026;-76
2022/11/07 07:43:27;;;;;;;23.73;2.70;;;;;;;10.42;100.00;100010.44;4829506;29;20082;-77
2022/11/07 07:45:52;;;;;;;17.92;2.65;;;;;;;10.44;100.00;100015.66;4810951;29;20122;-76
2022/11/07 07:48:18;;;;;;;19.85;2.55;;;;;;;10.44;100.00;100008.16;4841888;29;20038;-77
2022/11/07 07:50:43;;;;;;;21.13;2.50;;;;;;;10.49;100.00;100016.41;4828905;29;20066;-76
2022/11/07 07:53:09;;;;;;;16.17;2.20;;;;;;;10.50;100.00;100022.78;4814313;29;20133;-76
2022/11/07 07:55:34;;;;;;;20.55;3.00;;;;;;;10.52;100.00;100015.78;4814109;29;20041;-76
2022/11/07 07:58:00;;;;;;;15.75;2.40;;;;;;;10.53;100.00;100033.28;4798816;29;20042;-76
2022/11/07 08:00:25;;;;;;;16.30;2.25;;;;;;;10.55;100.00;100033.78;4829261;29;20026;-76
2022/11/07 08:02:58;;;;;;;19.90;2.72;;;;;;;10.58;100.00;100029.59;4828936;29;20030;-76
2022/11/07 08:05:24;;;;;;;;;;;;;;;10.63;100.00;100035.03;4829217;29;20030;-76
2022/11/07 08:07:50;;;;;;;19.35;2.35;;;;;;;10.63;100.00;100032.28;4845455;29;19919;-76
2022/11/07 08:10:16;;;;;;;18.02;2.58;;;;;;;10.64;100.00;100037.53;4798236;29;20039;-76
2022/11/07 08:12:43;;;;;;;13.65;2.50;;;;;;;10.66;100.00;100040.81;4840285;29;20050;-76
2022/11/07 08:15:09;;;;;;;11.63;2.67;;;;;;;10.69;100.00;100042.16;4844955;29;20080;-76
2022/11/07 08:17:35;;;;;;;17.25;2.42;;;;;;;10.72;100.00;100038.75;4830665;29;20037;-77
2022/11/07 08:20:00;;;;;;;22.80;2.80;;;;;;;10.74;100.00;100036.50;4812989;29;20400;-76
2022/11/07 08:22:26;;;;;;;19.00;2.30;;;;;;;10.74;100.00;100040.09;4828775;29;20033;-77
2022/11/07 08:24:51;;;;;;;22.75;2.50;;;;;;;10.79;100.00;100044.75;4798524;29;20059;-76
2022/11/07 08:27:17;;;;;;;16.23;2.45;;;;;;;10.80;100.00;100043.59;4829225;29;20395;-76
2022/11/07 08:29:42;;;;;;;16.83;2.55;;;;;;;10.83;100.00;100050.50;4845001;29;20037;-76
2022/11/07 08:32:08;;;;;;;19.08;2.80;;;;;;;10.85;100.00;100045.47;4828719;29;20064;-76
2022/11/07 08:34:33;;;;;;;14.07;2.20;;;;;;;10.87;100.00;100046.00;4830180;29;20097;-76
2022/11/07 08:36:59;;;;;;;13.52;2.08;;;;;;;10.89;100.00;100041.78;4843689;29;20037;-77
2022/11/07 08:39:24;;;;;;;14.35;2.60;;;;;;;10.92;100.00;100043.09;4813397;29;20048;-76
2022/11/07 08:41:50;;;;;;;19.52;2.58;;;;;;;10.93;100.00;100051.13;4813574;29;20523;-77
2022/11/07 08:44:15;;;;;;;13.82;2.47;;;;;;;10.95;100.00;100040.53;4827148;29;20059;-76
2022/11/07 08:46:40;;;;;;;18.63;2.50;;;;;;;11.02;100.00;100053.19;4828414;29;20046;-76
2022/11/07 08:49:06;;;;;;;17.90;2.38;;;;;;;11.03;100.00;100041.78;4797492;29;20054;-77
2022/11/07 08:51:32;;;;;;;19.42;2.95;;;;;;;11.09;100.00;100048.06;4798132;29;20037;-77
2022/11/07 08:53:57;;;;;;;18.83;2.70;;;;;;;11.11;100.00;100063.28;4828129;29;20086;-77
2022/11/07 08:56:23;;;;;;;21.95;3.28;;;;;;;11.18;100.00;100065.66;4828475;29;20090;-76
2022/11/07 08:58:48;;;;;;;17.90;2.40;;;;;;;11.22;100.00;100054.72;4795126;29;20046;-77
2022/11/07 09:01:14;;;;;;;17.60;3.22;;;;;;;11.27;100.00;100066.56;4840749;29;20394;-77
2022/11/07 09:03:40;;;;;;;23.38;3.17;;;;;;;11.33;100.00;100064.50;4844208;29;20037;-76
2022/11/07 09:06:05;;;;;;;20.13;3.67;;;;;;;11.44;100.00;100073.47;4844583;29;20037;-76
2022/11/07 09:08:31;;;;;;;21.38;3.17;;;;;;;11.49;100.00;100062.25;4828126;29;20079;-77
2022/11/07 09:11:03;;;;;;;14.70;2.83;;;;;;;11.58;100.00;100063.13;4795217;29;20046;-77
2022/11/07 09:13:32;;;;;;;25.25;3.80;;;;;;;11.66;100.00;100056.03;4812203;29;20038;-76
2022/11/07 09:15:58;;;;;;;28.70;4.32;;;;;;;11.71;100.00;100051.16;4828277;29;20577;-77
2022/11/07 09:18:25;;;;;;;22.95;4.00;;;;;;;11.81;100.00;100058.44;4827872;29;20042;-77
2022/11/07 09:20:50;;;;;;;20.63;3.58;;;;;;;11.84;100.00;100064.22;4827684;29;20029;-77
2022/11/07 09:23:16;;;;;;;25.15;4.05;;;;;;;11.95;100.00;100048.16;4828297;29;20419;-76
2022/11/07 09:25:41;;;;;;;28.85;4.28;;;;;;;12.03;100.00;100054.91;4843977;29;20038;-77
2022/11/07 09:28:07;;;;;;;27.30;4.28;;;;;;;12.11;100.00;100048.59;4827993;29;20038;-77
2022/11/07 09:30:32;;;;;;;24.77;4.95;;;;;;;12.19;100.00;100047.84;4843147;29;20044;-77
2022/11/07 09:32:58;;;;;;;26.95;3.97;;;;;;;12.29;100.00;100042.03;4814061;29;20045;-77
2022/11/07 09:35:23;;;;;;;21.27;3.55;;;;;;;12.42;100.00;100050.63;4840870;29;20037;-76
2022/11/07 09:37:49;;;;;;;27.13;3.55;;;;;;;12.55;100.00;100055.28;4811183;29;20030;-77
2022/11/07 09:40:42;;;;;;;25.70;3.30;;;;;;;12.67;100.00;100055.50;4831169;29;20444;-77
2022/11/07 09:43:29;;;;;;;15.77;2.72;;;;;;;12.82;100.00;100053.47;4832185;29;20038;-77
2022/11/07 09:46:13;;;;;;;21.58;3.42;;;;;;;12.96;100.00;100055.03;4831441;29;20083;-77
2022/11/07 09:48:43;;;;;;;22.63;4.13;;;;;;;13.09;100.00;100056.06;4847414;29;20450;-77
2022/11/07 09:51:36;;;;;;;23.48;4.03;;;;;;;13.25;100.00;100044.47;4827764;29;20121;-77
2022/11/07 09:54:09;;;;;;;27.02;4.22;;;;;;;13.35;100.00;100047.81;4824877;29;20070;-77
2022/11/07 09:56:34;;;;;;;33.50;4.55;;;;;;;13.47;100.00;100038.81;4815986;29;20045;-77
2022/11/07 09:59:05;;;;;;;19.50;3.40;;;;;;;13.54;100.00;100030.78;4831204;29;20030;-77
2022/11/07 10:01:30;;;;;;;25.30;3.92;;;;;;;13.62;100.00;100043.94;4831035;29;20041;-77
2022/11/07 10:03:56;;;;;;;24.70;3.67;;;;;;;13.71;100.00;100034.75;4830800;29;20061;-77
2022/11/07 10:06:38;;;;;;;27.50;3.85;;;;;;;13.76;100.00;100038.22;4831108;29;20041;-77
2022/11/07 10:09:11;;;;;;;22.83;3.80;;;;;;;13.84;100.00;100044.94;4802635;29;20117;-77
2022/11/07 10:11:52;;;;;;;26.27;3.92;;;;;;;13.89;100.00;100036.41;4828549;29;20069;-77
2022/11/07 10:14:32;;;;;;;28.02;4.38;;;;;;;13.99;100.00;100041.66;4847506;29;20030;-77
2022/11/07 10:17:13;;;;;;;30.00;4.85;;;;;;;14.08;100.00;100048.06;4830766;29;20368;-77
2022/11/07 10:20:17;;;;;;;31.13;4.55;;;;;;;14.19;100.00;100039.34;4823270;29;20042;-78
2022/11/07 10:22:48;;;;;;;26.50;4.22;;;;;;;14.32;100.00;100049.53;4830923;29;20110;-77
2022/11/07 10:25:14;;;;;;;29.65;4.78;;;;;;;14.41;100.00;100041.97;4830623;29;20074;-77
2022/11/07 10:27:39;;;;;;;26.80;4.70;;;;;;;14.50;100.00;100039.97;4847283;29;20437;-77
2022/11/07 10:30:14;;;;;;;33.80;4.50;;;;;;;14.60;100.00;100043.56;4830469;29;20530;-77
2022/11/07 10:32:46;;;;;;;34.38;4.55;;;;;;;14.68;100.00;100035.19;4830578;29;20037;-77
2022/11/07 10:35:23;;;;;;;26.30;4.32;;;;;;;14.70;100.00;100032.06;4824540;29;20081;-77
2022/11/07 10:37:57;;;;;;;28.63;4.57;;;;;;;14.79;100.00;100041.22;4815668;29;20133;-77
2022/11/07 10:40:23;;;;;;;28.75;3.97;;;;;;;14.85;100.00;100034.31;4815376;29;20038;-77
2022/11/07 10:42:48;;;;;;;31.35;4.30;;;;;;;14.94;100.00;100049.06;4815327;29;20040;-77
2022/11/07 10:45:14;;;;;;;30.85;5.05;;;;;;;15.01;100.00;100033.75;4814737;29;20042;-77
2022/11/07 10:47:40;;;;;;;30.40;4.50;;;;;;;15.04;100.00;100049.84;4830094;29;20038;-77
2022/11/07 10:50:17;;;;;;;38.80;4.68;;;;;;;15.10;100.00;100043.75;4814614;29;20411;-77
2022/11/07 10:52:51;;;;;;;27.92;4.22;;;;;;;15.13;100.00;100028.28;4813194;29;20049;-77
2022/11/07 10:55:16;;;;;;;32.00;4.78;;;;;;;15.17;100.00;100012.47;4824402;29;20121;-77
2022/11/07 10:57:43;;;;;;;31.45;5.03;;;;;;;15.22;100.00;100020.66;4811953;29;20072;-77
2022/11/07 11:00:40;;;;;;;26.75;4.25;;;;;;;15.25;100.00;100011.59;4826538;29;20041;-77
2022/11/07 11:03:16;;;;;;;30.50;4.38;;;;;;;15.31;100.00;100013.03;4801020;29;20085;-78
2022/11/07 11:05:45;;;;;;;33.40;4.82;;;;;;;15.38;100.00;100012.53;4814960;29;20034;-77
2022/11/07 11:08:18;;;;;;;30.90;4.55;;;;;;;15.46;100.00;100008.84;4814968;29;20029;-77
2022/11/07 11:10:43;;;;;;;29.92;4.65;;;;;;;15.56;100.00;100007.63;4829828;29;20034;-77
2022/11/07 11:13:26;;;;;;;29.50;4.72;;;;;;;15.62;100.00;100006.25;4830457;29;20562;-77
2022/11/07 11:15:51;;;;;;;29.05;4.88;;;;;;;15.66;100.00;100004.44;4830103;29;20034;-77
2022/11/07 11:18:17;;;;;;;29.77;5.63;;;;;;;15.73;100.00;100012.31;4813636;29;20099;-77
2022/11/07 11:20:53;;;;;;;36.30;4.95;;;;;;;15.75;100.00;100008.00;4814873;29;20045;-77
2022/11/07 11:23:21;;;;;;;28.33;4.45;;;;;;;15.78;100.00;100006.50;4815028;29;20034;-77
2022/11/07 11:25:48;;;;;;;33.35;4.45;;;;;;;15.85;100.00;100006.75;4826703;29;20391;-77
2022/11/07 11:28:26;;;;;;;26.33;4.95;;;;;;;15.84;100.00;99999.53;4827144;29;20526;-77